Time;durP1;ratioP1;P1;durP2;ratioP2;P2;SDS_P1;SDS_P2;PMS_P1;PMS_P2;Temp;Humidity;BMP_temperature;BMP_pressure;BME280_temperature;BME280_humidity;BME280_pressure;Samples;Min_cycle;Max_cycle;Signal;HPM_P1;HPM_P2
2023/09/04 01:42:25;;;;;;;10.20;9.90;;;14.70;99.90;;;;;;6026868;23;20216;-92
2023/09/04 01:45:41;;;;;;;10.20;9.90;;;14.60;99.90;;;;;;6113494;23;20211;-91
2023/09/04 02:22:51;;;;;;;;;;;;;;;;;;;;;
2023/09/04 03:20:43;;;;;;;9.90;9.60;;;13.60;99.90;;;;;;6203222;23;20245;-89
2023/09/04 03:37:24;;;;;;;9.97;9.67;;;13.40;99.90;;;;;;5983069;23;20203;-91
2023/09/04 07:03:11;;;;;;;10.77;10.48;;;16.70;99.90;;;;;;6255886;22;20233;-86
2023/09/04 07:09:49;;;;;;;10.60;10.30;;;16.90;99.90;;;;;;6238553;22;20232;-87
2023/09/04 07:20:06;;;;;;;10.40;10.10;;;17.30;99.90;;;;;;6134079;23;20201;-86
2023/09/04 07:23:49;;;;;;;;;;;;;;;;;;;;;
2023/09/04 07:26:56;;;;;;;;;;;;;;;;;;;;;
2023/09/04 07:32:59;;;;;;;10.63;10.32;;;17.90;99.90;;;;;;6230793;22;20236;-86
2023/09/04 07:39:02;;;;;;;11.00;10.70;;;18.00;99.90;;;;;;5179181;27;20562;-86
2023/09/04 07:56:01;;;;;;;10.73;10.43;;;18.20;99.90;;;;;;5172928;27;20517;-83
2023/09/04 07:58:28;;;;;;;10.63;10.32;;;18.40;99.90;;;;;;5120166;27;20228;-84
2023/09/04 08:00:59;;;;;;;10.60;10.30;;;18.60;99.90;;;;;;5097381;27;20296;-83
2023/09/04 08:03:28;;;;;;;10.75;10.45;;;18.70;99.90;;;;;;5099290;28;20225;-84
2023/09/04 08:05:56;;;;;;;10.90;10.60;;;18.80;99.90;;;;;;5100380;28;20260;-84
2023/09/04 08:29:31;;;;;;;10.60;10.30;;;19.80;99.90;;;;;;5138803;27;20304;-87
2023/09/04 08:37:45;;;;;;;10.20;9.90;;;20.20;99.90;;;;;;5136084;27;20200;-84
2023/09/04 08:40:57;;;;;;;10.40;10.10;;;20.30;99.90;;;;;;5138467;27;20252;-85
2023/09/04 09:09:35;;;;;;;10.40;10.10;;;21.10;99.90;;;;;;5049700;28;20273;-87
2023/09/04 09:12:27;;;;;;;10.38;10.07;;;21.30;99.90;;;;;;5103539;28;20236;-87
2023/09/04 09:17:54;;;;;;;10.18;9.88;;;21.90;99.90;;;;;;5108747;28;20241;-86
2023/09/04 09:31:59;;;;;;;10.00;9.70;;;23.10;99.90;;;;;;4971940;28;20211;-88
2023/09/04 10:39:48;;;;;;;10.40;10.10;;;26.40;99.90;;;;;;5101733;28;20257;-86
2023/09/04 10:42:17;;;;;;;10.40;10.10;;;26.70;99.90;;;;;;5101420;28;20235;-84
2023/09/04 10:44:49;;;;;;;10.73;10.43;;;26.60;99.90;;;;;;5101398;28;20327;-86
2023/09/04 10:47:17;;;;;;;10.48;10.18;;;26.60;99.90;;;;;;5101746;28;20248;-86
2023/09/04 10:49:45;;;;;;;10.50;10.20;;;26.60;99.90;;;;;;5101340;28;20233;-86
2023/09/04 10:52:18;;;;;;;10.35;10.05;;;26.60;99.90;;;;;;5101186;28;20325;-85
2023/09/04 10:54:46;;;;;;;10.40;10.10;;;26.50;99.90;;;;;;5101138;28;20225;-82
2023/09/04 10:57:15;;;;;;;10.60;10.30;;;26.40;99.90;;;;;;5100971;28;20220;-85
2023/09/04 11:02:51;;;;;;;10.90;10.60;;;26.60;99.90;;;;;;5126704;28;20319;-89
2023/09/04 11:05:21;;;;;;;10.80;10.50;;;26.90;99.90;;;;;;5129699;28;20227;-87
2023/09/04 11:10:42;;;;;;;10.50;10.20;;;27.10;99.90;;;;;;5130813;27;20231;-86
2023/09/04 11:13:23;;;;;;;10.48;10.18;;;27.20;99.90;;;;;;5130567;27;20713;-86
2023/09/04 11:16:03;;;;;;;10.38;10.07;;;27.40;99.90;;;;;;5126163;28;20222;-86
2023/09/04 11:18:31;;;;;;;10.30;10.00;;;27.40;99.90;;;;;;5127349;28;20287;-86
2023/09/04 11:21:03;;;;;;;10.52;10.23;;;27.60;99.90;;;;;;5135542;27;20229;-83
2023/09/04 11:23:33;;;;;;;10.30;10.00;;;27.70;99.90;;;;;;5128568;27;20236;-79
2023/09/04 11:26:02;;;;;;;10.50;10.20;;;27.80;99.90;;;;;;5137271;27;20240;-81
2023/09/04 11:28:29;;;;;;;10.60;10.30;;;27.90;99.90;;;;;;5144821;27;20254;-79
2023/09/04 11:30:58;;;;;;;10.43;10.13;;;27.70;99.90;;;;;;5143575;27;20259;-79
2023/09/04 11:33:27;;;;;;;10.43;10.13;;;28.00;99.90;;;;;;5135812;27;20256;-79
2023/09/04 11:36:14;;;;;;;10.40;10.10;;;28.30;99.90;;;;;;5144511;27;20296;-79
2023/09/04 11:38:46;;;;;;;10.50;10.20;;;28.70;99.90;;;;;;5144179;27;20228;-80
2023/09/04 11:44:10;;;;;;;10.43;10.13;;;28.50;99.90;;;;;;5129993;27;20683;-79
2023/09/04 11:46:40;;;;;;;10.50;10.20;;;28.40;99.90;;;;;;5131631;27;20233;-78
2023/09/04 11:49:08;;;;;;;10.70;10.40;;;28.60;99.90;;;;;;5138533;27;20259;-81
2023/09/04 11:51:40;;;;;;;10.38;10.07;;;28.80;99.90;;;;;;5116545;27;20233;-80
2023/09/04 11:54:09;;;;;;;10.50;10.20;;;28.80;99.90;;;;;;5126569;27;20288;-79
2023/09/04 11:56:37;;;;;;;10.40;10.10;;;28.80;99.90;;;;;;5131714;27;20235;-80
2023/09/04 11:59:06;;;;;;;10.60;10.30;;;29.00;99.90;;;;;;5126400;27;20221;-80
2023/09/04 12:01:35;;;;;;;10.40;10.10;;;29.20;99.90;;;;;;5104851;28;20241;-80
2023/09/04 12:04:04;;;;;;;10.70;10.40;;;29.30;99.90;;;;;;5112105;28;20229;-80
2023/09/04 12:06:33;;;;;;;10.50;10.20;;;29.20;99.90;;;;;;5114491;28;20324;-80
2023/09/04 12:09:03;;;;;;;10.52;10.23;;;29.20;99.90;;;;;;5114548;28;20285;-80
2023/09/04 12:11:35;;;;;;;10.68;10.38;;;29.40;99.90;;;;;;5113982;28;20234;-81
2023/09/04 12:14:11;;;;;;;10.70;10.40;;;29.80;99.90;;;;;;5109044;28;20263;-79
2023/09/04 12:16:40;;;;;;;10.60;10.30;;;30.20;99.90;;;;;;5104939;28;20217;-78
2023/09/04 12:22:24;;;;;;;10.80;10.50;;;30.90;99.90;;;;;;5153212;22;20253;-82
2023/09/04 12:28:15;;;;;;;10.80;10.50;;;31.20;99.90;;;;;;5144290;27;20216;-80
2023/09/04 12:30:45;;;;;;;10.38;10.07;;;31.20;99.90;;;;;;5146152;27;20271;-81
2023/09/04 12:33:16;;;;;;;10.43;10.13;;;31.40;99.90;;;;;;5144326;27;20307;-78
2023/09/04 12:35:44;;;;;;;10.75;10.45;;;31.30;99.90;;;;;;5145527;27;20235;-86
2023/09/04 12:38:13;;;;;;;10.27;9.98;;;31.50;99.90;;;;;;5145812;27;20216;-86
2023/09/04 12:40:41;;;;;;;10.65;10.35;;;31.30;99.90;;;;;;5145588;27;20227;-85
2023/09/04 12:43:14;;;;;;;10.48;10.18;;;31.60;99.90;;;;;;5149023;27;20266;-84
2023/09/04 12:45:42;;;;;;;10.40;10.10;;;32.00;99.90;;;;;;5156186;27;20235;-86
2023/09/04 12:50:57;;;;;;;10.85;10.55;;;31.80;99.90;;;;;;5153791;27;20232;-85
2023/09/04 12:53:26;;;;;;;10.68;10.38;;;31.40;99.90;;;;;;5149306;27;20224;-85
2023/09/04 12:55:57;;;;;;;10.77;10.48;;;31.10;99.90;;;;;;5148687;27;20224;-85
2023/09/04 12:58:27;;;;;;;10.80;10.50;;;31.10;99.90;;;;;;5156625;27;20223;-86
2023/09/04 13:00:55;;;;;;;10.90;10.60;;;31.30;99.90;;;;;;5131096;27;20251;-85
2023/09/04 13:03:35;;;;;;;10.85;10.55;;;31.80;99.90;;;;;;5129030;28;20288;-85
2023/09/04 13:06:03;;;;;;;10.73;10.43;;;31.70;99.90;;;;;;5133899;27;20327;-85
2023/09/04 13:08:34;;;;;;;11.07;10.77;;;31.40;99.90;;;;;;5147739;27;20219;-85
2023/09/04 13:11:02;;;;;;;10.90;10.60;;;31.40;99.90;;;;;;5149151;27;20271;-87
2023/09/04 13:16:28;;;;;;;11.30;11.00;;;31.90;99.90;;;;;;5146633;27;20220;-85
2023/09/04 13:19:01;;;;;;;10.77;10.48;;;32.10;99.90;;;;;;5149330;27;20257;-85
2023/09/04 13:21:48;;;;;;;10.70;10.40;;;32.10;99.90;;;;;;5153366;27;20316;-86
2023/09/04 13:24:15;;;;;;;10.60;10.30;;;31.60;99.90;;;;;;5140029;27;20220;-87
2023/09/04 13:26:45;;;;;;;10.52;10.23;;;31.10;99.90;;;;;;5148397;27;20354;-85
2023/09/04 13:32:03;;;;;;;10.45;10.15;;;31.20;99.90;;;;;;5150483;27;20272;-87
2023/09/04 13:34:30;;;;;;;10.60;10.30;;;31.20;99.90;;;;;;5128556;27;20225;-86
2023/09/04 13:36:59;;;;;;;10.50;10.20;;;31.00;99.90;;;;;;5130876;27;20235;-86
2023/09/04 13:39:38;;;;;;;10.48;10.18;;;30.60;99.90;;;;;;5166459;27;20232;-86
2023/09/04 13:42:07;;;;;;;10.50;10.20;;;30.50;99.90;;;;;;5134851;27;20220;-86
2023/09/04 13:44:39;;;;;;;10.32;10.02;;;30.50;99.90;;;;;;5140409;27;20231;-88
2023/09/04 13:47:06;;;;;;;10.65;10.35;;;30.50;99.90;;;;;;5155690;27;20236;-85
2023/09/04 13:49:35;;;;;;;10.30;10.00;;;30.30;99.90;;;;;;5135162;27;20251;-87
2023/09/04 13:52:14;;;;;;;10.80;10.50;;;29.90;99.90;;;;;;5144317;27;20231;-85
2023/09/04 13:54:43;;;;;;;10.70;10.40;;;29.70;99.90;;;;;;5143779;27;20231;-87
2023/09/04 13:57:12;;;;;;;10.80;10.50;;;29.80;99.90;;;;;;5146320;27;20224;-85
2023/09/04 14:02:38;;;;;;;10.75;10.45;;;30.20;99.90;;;;;;5141437;27;20245;-85
2023/09/04 14:05:07;;;;;;;10.98;10.68;;;30.20;99.90;;;;;;5140981;27;20228;-84
2023/09/04 14:07:47;;;;;;;11.07;10.77;;;30.20;99.90;;;;;;5141066;27;20259;-86
2023/09/04 14:10:14;;;;;;;11.05;10.75;;;30.20;99.90;;;;;;5156766;27;20296;-85
2023/09/04 14:12:54;;;;;;;10.77;10.48;;;30.40;99.90;;;;;;5150130;27;20228;-85
2023/09/04 14:15:24;;;;;;;10.90;10.60;;;30.70;99.90;;;;;;5137356;27;20220;-86
2023/09/04 14:17:51;;;;;;;10.90;10.60;;;31.10;99.90;;;;;;5145738;27;20228;-87
2023/09/04 14:20:31;;;;;;;10.65;10.35;;;31.20;99.90;;;;;;5144533;27;20235;-86
2023/09/04 14:22:59;;;;;;;10.57;10.27;;;31.20;99.90;;;;;;5161068;27;20252;-83
2023/09/04 14:25:29;;;;;;;10.65;10.35;;;31.00;99.90;;;;;;5136154;27;20235;-84
2023/09/04 14:27:58;;;;;;;10.57;10.27;;;30.70;99.90;;;;;;5146547;27;20256;-84
2023/09/04 14:30:45;;;;;;;10.55;10.25;;;30.40;99.90;;;;;;5147925;27;20275;-85
2023/09/04 14:33:15;;;;;;;10.60;10.30;;;30.20;99.90;;;;;;5139831;27;20208;-85
2023/09/04 14:35:53;;;;;;;11.00;10.70;;;30.30;99.90;;;;;;5162195;27;20846;-85
2023/09/04 14:38:23;;;;;;;10.68;10.38;;;30.90;99.90;;;;;;5170228;27;20227;-84
2023/09/04 14:41:01;;;;;;;11.00;10.70;;;31.70;99.90;;;;;;5180811;27;20232;-86
2023/09/04 14:43:30;;;;;;;10.65;10.35;;;32.40;99.90;;;;;;5181064;27;20230;-85
2023/09/04 14:46:08;;;;;;;10.10;9.80;;;33.00;99.90;;;;;;5170493;27;20227;-87
2023/09/04 14:48:47;;;;;;;10.15;9.85;;;33.00;99.90;;;;;;5165826;27;20363;-88
2023/09/04 14:51:16;;;;;;;10.35;10.05;;;33.20;99.90;;;;;;5165400;27;20236;-87
2023/09/04 14:53:55;;;;;;;10.35;10.05;;;33.40;99.90;;;;;;5164594;27;20315;-88
2023/09/04 14:56:25;;;;;;;10.60;10.30;;;33.70;99.90;;;;;;5165470;27;20258;-87
2023/09/04 14:58:54;;;;;;;10.70;10.40;;;33.90;99.90;;;;;;5165301;27;20254;-88
2023/09/04 15:01:25;;;;;;;10.70;10.40;;;34.00;99.90;;;;;;5164260;27;20259;-87
2023/09/04 15:03:53;;;;;;;10.85;10.55;;;34.20;99.90;;;;;;5168516;27;20220;-87
2023/09/04 15:06:21;;;;;;;10.80;10.50;;;34.40;99.90;;;;;;5164956;27;20239;-87
2023/09/04 15:09:00;;;;;;;10.45;10.15;;;34.30;99.90;;;;;;5165245;27;20262;-88
2023/09/04 15:11:29;;;;;;;10.35;10.05;;;34.30;99.90;;;;;;5164517;27;20223;-88
2023/09/04 15:16:41;;;;;;;10.65;10.35;;;34.50;99.90;;;;;;5163622;27;20276;-87
2023/09/04 15:19:08;;;;;;;10.25;9.95;;;34.60;99.90;;;;;;5164231;27;20219;-87
2023/09/04 15:21:48;;;;;;;10.63;10.32;;;34.50;99.90;;;;;;5163900;27;20293;-86
2023/09/04 15:24:16;;;;;;;10.50;10.20;;;34.30;99.90;;;;;;5164279;27;20223;-87
2023/09/04 15:26:55;;;;;;;10.70;10.40;;;34.30;99.90;;;;;;5164748;27;20238;-89
2023/09/04 15:29:23;;;;;;;10.73;10.43;;;34.40;99.90;;;;;;5165539;27;20248;-87
2023/09/04 15:34:49;;;;;;;10.50;10.20;;;34.70;99.90;;;;;;5175700;27;20222;-87
2023/09/04 15:37:21;;;;;;;10.60;10.30;;;34.80;99.90;;;;;;5171559;27;20228;-90
2023/09/04 15:39:49;;;;;;;10.02;9.73;;;34.90;99.90;;;;;;5148223;27;20228;-90
2023/09/04 15:42:18;;;;;;;10.30;10.00;;;35.00;99.90;;;;;;5144162;27;20220;-87
2023/09/04 15:44:46;;;;;;;10.15;9.85;;;35.20;99.90;;;;;;5145387;27;20250;-87
2023/09/04 15:47:20;;;;;;;10.20;9.90;;;35.30;99.90;;;;;;5158114;27;20224;-89
2023/09/04 15:49:48;;;;;;;9.63;9.32;;;35.30;99.90;;;;;;5158046;27;20239;-87
2023/09/04 15:52:33;;;;;;;10.07;9.77;;;35.30;99.90;;;;;;5158239;27;20287;-89
2023/09/04 15:55:14;;;;;;;;;;;;;;;;;;;;;
2023/09/04 15:57:52;;;;;;;9.82;9.52;;;35.10;99.90;;;;;;5147649;27;20226;-91
2023/09/04 16:00:44;;;;;;;10.30;10.00;;;34.70;99.90;;;;;;5145236;27;20238;-89
2023/09/04 16:03:26;;;;;;;10.15;9.85;;;34.60;99.90;;;;;;5144076;27;20224;-88
2023/09/04 16:05:54;;;;;;;10.50;10.20;;;34.10;99.90;;;;;;5143860;27;20234;-88
2023/09/04 16:08:40;;;;;;;10.38;10.07;;;33.70;99.90;;;;;;5143450;27;20273;-90
2023/09/04 16:11:11;;;;;;;10.23;9.93;;;33.70;99.90;;;;;;5142425;27;20228;-89
2023/09/04 16:13:48;;;;;;;10.60;10.30;;;33.70;99.90;;;;;;5142805;27;20242;-89
2023/09/04 16:16:17;;;;;;;10.57;10.27;;;33.70;99.90;;;;;;5144037;27;20212;-88
2023/09/04 16:21:33;;;;;;;10.70;10.40;;;33.70;99.90;;;;;;5145129;27;20243;-90
2023/09/04 16:24:12;;;;;;;10.68;10.38;;;33.50;99.90;;;;;;5146692;27;20232;-86
2023/09/04 16:26:41;;;;;;;10.73;10.43;;;33.40;99.90;;;;;;5146589;27;20248;-86
2023/09/04 16:29:11;;;;;;;10.55;10.25;;;33.30;99.90;;;;;;5154439;27;20220;-88
2023/09/04 16:31:39;;;;;;;10.63;10.32;;;33.30;99.90;;;;;;5160494;27;20231;-87
2023/09/04 16:34:11;;;;;;;10.85;10.55;;;33.00;99.90;;;;;;5163031;27;20227;-86
2023/09/04 16:36:38;;;;;;;10.48;10.18;;;33.10;99.90;;;;;;5153024;27;20227;-87
2023/09/04 16:39:07;;;;;;;10.55;10.25;;;33.10;99.90;;;;;;5149608;27;20232;-87
2023/09/04 16:41:46;;;;;;;10.48;10.18;;;32.80;99.90;;;;;;5147816;27;20232;-86
2023/09/04 16:44:15;;;;;;;10.40;10.10;;;32.40;99.90;;;;;;5146621;27;20220;-86
2023/09/04 16:46:45;;;;;;;10.50;10.20;;;32.00;99.90;;;;;;5146290;27;20312;-87
2023/09/04 16:49:17;;;;;;;10.50;10.20;;;31.70;99.90;;;;;;5146731;27;20318;-86
2023/09/04 16:51:44;;;;;;;10.52;10.23;;;31.50;99.90;;;;;;5146233;27;20309;-86
2023/09/04 16:54:13;;;;;;;10.50;10.20;;;31.50;99.90;;;;;;5145856;27;20246;-86
2023/09/04 16:56:52;;;;;;;10.48;10.18;;;31.40;99.90;;;;;;5146053;27;20231;-87
2023/09/04 16:59:21;;;;;;;10.90;10.60;;;31.10;99.90;;;;;;5144861;27;21052;-87
2023/09/04 17:01:50;;;;;;;10.57;10.27;;;30.70;99.90;;;;;;5147379;22;20253;-87
2023/09/04 17:04:24;;;;;;;10.60;10.30;;;30.40;99.90;;;;;;5099117;28;20221;-84
2023/09/04 17:06:51;;;;;;;10.77;10.48;;;30.10;99.90;;;;;;5106227;28;20224;-83
2023/09/04 17:09:23;;;;;;;10.70;10.40;;;29.70;99.90;;;;;;5095506;28;20226;-86
2023/09/04 17:11:52;;;;;;;10.60;10.30;;;29.20;99.90;;;;;;5072389;28;20254;-84
2023/09/04 17:14:19;;;;;;;10.30;10.00;;;28.70;99.90;;;;;;5063487;28;20219;-85
2023/09/04 17:16:46;;;;;;;10.60;10.30;;;28.20;99.90;;;;;;5071869;28;20258;-85
2023/09/04 17:19:16;;;;;;;10.38;10.07;;;27.80;99.90;;;;;;5068989;28;20289;-85
2023/09/04 17:21:44;;;;;;;10.52;10.23;;;27.40;99.90;;;;;;5083365;28;20226;-84
2023/09/04 17:24:13;;;;;;;10.48;10.18;;;27.10;99.90;;;;;;5082436;28;20222;-85
2023/09/04 17:26:41;;;;;;;10.23;9.93;;;26.80;99.90;;;;;;5083106;28;20233;-85
2023/09/04 17:29:08;;;;;;;9.90;9.60;;;26.60;99.90;;;;;;5083244;28;20234;-84
2023/09/04 17:31:38;;;;;;;9.95;9.65;;;26.40;99.90;;;;;;5082436;28;20233;-85
2023/09/04 17:34:06;;;;;;;9.93;9.63;;;26.20;99.90;;;;;;5082202;28;20230;-85
2023/09/04 17:36:36;;;;;;;9.90;9.60;;;26.00;99.90;;;;;;5082309;28;20225;-84
2023/09/04 17:39:06;;;;;;;10.38;10.07;;;25.70;99.90;;;;;;5081805;28;20266;-83
2023/09/04 17:41:34;;;;;;;10.35;10.05;;;25.60;99.90;;;;;;5082459;28;20238;-85
2023/09/04 17:44:02;;;;;;;10.35;10.05;;;25.40;99.90;;;;;;5082951;28;20230;-85
2023/09/04 17:46:29;;;;;;;9.98;9.68;;;25.30;99.90;;;;;;5082606;28;20253;-85
2023/09/04 17:48:58;;;;;;;10.30;10.00;;;25.10;99.90;;;;;;5082936;28;20230;-81
2023/09/04 17:51:25;;;;;;;9.90;9.60;;;25.00;99.90;;;;;;5083349;28;20293;-81
2023/09/04 17:53:52;;;;;;;10.23;9.93;;;25.00;99.90;;;;;;5085485;28;20233;-81
2023/09/04 17:56:20;;;;;;;10.18;9.88;;;24.90;99.90;;;;;;5091762;27;20265;-81
2023/09/04 17:58:47;;;;;;;10.30;10.00;;;24.80;99.90;;;;;;5085706;28;20229;-81
2023/09/04 18:01:14;;;;;;;10.20;9.90;;;24.70;99.90;;;;;;5084578;28;20307;-80
2023/09/04 18:03:41;;;;;;;10.23;9.93;;;24.50;99.90;;;;;;5090982;28;20285;-79
2023/09/04 18:06:09;;;;;;;10.20;9.90;;;24.40;99.90;;;;;;5084113;28;20326;-80
2023/09/04 18:08:36;;;;;;;10.27;9.98;;;24.30;99.90;;;;;;5083278;28;20245;-81
2023/09/04 18:11:04;;;;;;;9.85;9.55;;;24.20;99.90;;;;;;5089284;28;20250;-80
2023/09/04 18:13:32;;;;;;;10.20;9.90;;;24.10;99.90;;;;;;5087464;28;20234;-80
2023/09/04 18:16:00;;;;;;;9.73;9.43;;;24.00;99.90;;;;;;5084561;28;20231;-81
2023/09/04 18:18:27;;;;;;;9.35;9.05;;;23.90;99.90;;;;;;5090329;28;20265;-81
2023/09/04 18:20:54;;;;;;;9.40;9.10;;;23.90;99.90;;;;;;5083626;28;20268;-82
2023/09/04 18:23:22;;;;;;;8.98;8.77;;;23.80;99.90;;;;;;5081092;28;20313;-79
2023/09/04 18:25:50;;;;;;;9.35;9.05;;;23.70;99.90;;;;;;5081672;28;20250;-80
2023/09/04 18:28:19;;;;;;;9.70;9.40;;;23.70;99.90;;;;;;5081768;28;20232;-81
2023/09/04 18:30:50;;;;;;;9.65;9.35;;;23.70;99.90;;;;;;5081543;28;20237;-81
2023/09/04 18:33:20;;;;;;;9.80;9.50;;;23.60;99.90;;;;;;5078073;28;20230;-81
2023/09/04 18:35:49;;;;;;;10.07;9.77;;;23.50;99.90;;;;;;5074632;28;20206;-81
2023/09/04 18:38:16;;;;;;;9.50;9.20;;;23.50;99.90;;;;;;5080272;28;20218;-82
2023/09/04 18:40:44;;;;;;;9.50;9.20;;;23.30;99.90;;;;;;5080623;28;20284;-81
2023/09/04 18:43:11;;;;;;;9.50;9.20;;;23.30;99.90;;;;;;5071843;28;20250;-81
2023/09/04 18:45:43;;;;;;;9.30;9.00;;;23.20;99.90;;;;;;5077303;28;20282;-83
2023/09/04 18:48:12;;;;;;;9.00;8.80;;;23.10;99.90;;;;;;5069424;28;21038;-83
2023/09/04 18:50:39;;;;;;;9.40;9.10;;;23.00;99.90;;;;;;5081000;28;20230;-83
2023/09/04 18:53:06;;;;;;;8.80;8.60;;;22.90;99.90;;;;;;5073353;28;20235;-84
2023/09/04 18:55:33;;;;;;;8.80;8.60;;;22.90;99.90;;;;;;5082679;28;20228;-83
2023/09/04 18:58:01;;;;;;;8.65;8.45;;;22.80;99.90;;;;;;5082706;28;20236;-81
2023/09/04 19:00:30;;;;;;;8.90;8.70;;;22.70;99.90;;;;;;5086009;28;20230;-80
2023/09/04 19:03:00;;;;;;;8.80;8.60;;;22.70;99.90;;;;;;5088542;28;20303;-82
2023/09/04 19:05:30;;;;;;;9.10;8.90;;;22.60;99.90;;;;;;5083405;28;20230;-82
2023/09/04 19:07:59;;;;;;;9.00;8.80;;;22.50;99.90;;;;;;5083857;28;20288;-82
2023/09/04 19:10:28;;;;;;;9.60;9.30;;;22.30;99.90;;;;;;5083710;28;20230;-82
2023/09/04 19:12:55;;;;;;;9.38;9.07;;;22.20;99.90;;;;;;5084105;28;20218;-82
2023/09/04 19:15:22;;;;;;;9.30;9.00;;;22.10;99.90;;;;;;5084141;28;20230;-83
2023/09/04 19:17:49;;;;;;;9.20;8.90;;;22.00;99.90;;;;;;5084861;28;20257;-81
2023/09/04 19:20:19;;;;;;;8.80;8.60;;;22.00;99.90;;;;;;5083935;28;20245;-82
2023/09/04 19:22:50;;;;;;;8.85;8.65;;;21.90;99.90;;;;;;5083341;28;20230;-82
2023/09/04 19:25:18;;;;;;;9.45;9.15;;;21.90;99.90;;;;;;5083550;28;20293;-82
2023/09/04 19:27:45;;;;;;;9.20;8.90;;;21.80;99.90;;;;;;5088109;28;20287;-83
2023/09/04 19:30:14;;;;;;;8.85;8.65;;;21.70;99.90;;;;;;5089911;28;20241;-82
2023/09/04 19:32:43;;;;;;;8.80;8.60;;;21.70;99.90;;;;;;5089814;28;20236;-82
2023/09/04 19:35:11;;;;;;;8.90;8.70;;;21.60;99.90;;;;;;5081730;28;20311;-82
2023/09/04 19:37:38;;;;;;;8.80;8.60;;;21.50;99.90;;;;;;5081552;28;20380;-82
2023/09/04 19:40:10;;;;;;;9.05;8.85;;;21.50;99.90;;;;;;5082402;28;20315;-82
2023/09/04 19:42:37;;;;;;;9.27;8.98;;;21.50;99.90;;;;;;5082068;28;20237;-84
2023/09/04 19:45:07;;;;;;;9.40;9.10;;;21.40;99.90;;;;;;5081450;28;20282;-83
2023/09/04 19:47:34;;;;;;;9.35;9.05;;;21.30;99.90;;;;;;5081976;28;20234;-82
2023/09/04 19:50:03;;;;;;;9.30;9.00;;;21.20;99.90;;;;;;5080630;28;20222;-82
2023/09/04 19:52:31;;;;;;;9.43;9.13;;;21.20;99.90;;;;;;5082299;28;20226;-83
2023/09/04 19:54:58;;;;;;;9.63;9.32;;;21.10;99.90;;;;;;5081515;28;20288;-82
2023/09/04 19:57:26;;;;;;;9.82;9.52;;;21.10;99.90;;;;;;5080280;28;20229;-82
2023/09/04 19:59:56;;;;;;;9.27;8.98;;;21.00;99.90;;;;;;5080430;28;20226;-83
2023/09/04 20:02:23;;;;;;;9.50;9.20;;;21.00;99.90;;;;;;5082246;28;20238;-83
2023/09/04 20:04:50;;;;;;;9.57;9.27;;;21.00;99.90;;;;;;5083360;28;20273;-83
2023/09/04 20:07:17;;;;;;;9.50;9.20;;;20.90;99.90;;;;;;5083270;28;20233;-83
2023/09/04 20:09:47;;;;;;;9.50;9.20;;;20.80;99.90;;;;;;5082813;28;20254;-82
2023/09/04 20:12:15;;;;;;;9.40;9.10;;;20.70;99.90;;;;;;5081668;28;20319;-84
2023/09/04 20:14:44;;;;;;;9.50;9.20;;;20.60;99.90;;;;;;5080684;28;20234;-83
2023/09/04 20:17:11;;;;;;;9.65;9.35;;;20.50;99.90;;;;;;5081137;28;20252;-82
2023/09/04 20:19:38;;;;;;;9.98;9.68;;;20.40;99.90;;;;;;5077831;28;20280;-82
2023/09/04 20:22:05;;;;;;;9.70;9.40;;;20.40;99.90;;;;;;5079195;28;20291;-83
2023/09/04 20:24:32;;;;;;;9.63;9.32;;;20.30;99.90;;;;;;5079657;28;20609;-82
2023/09/04 20:27:00;;;;;;;9.38;9.07;;;20.20;99.90;;;;;;5079271;28;20268;-83
2023/09/04 20:29:29;;;;;;;9.90;9.60;;;20.20;99.90;;;;;;5079983;28;20229;-82
2023/09/04 20:31:58;;;;;;;9.40;9.10;;;20.10;99.90;;;;;;5078804;28;20325;-81
2023/09/04 20:34:28;;;;;;;9.70;9.40;;;20.00;99.90;;;;;;5078958;28;20317;-80
2023/09/04 20:37:01;;;;;;;10.07;9.77;;;20.00;99.90;;;;;;5080632;28;20230;-82
2023/09/04 20:39:28;;;;;;;9.60;9.30;;;19.90;99.90;;;;;;5079707;28;20294;-82
2023/09/04 20:41:56;;;;;;;10.05;9.75;;;19.80;99.90;;;;;;5079229;28;20297;-81
2023/09/04 20:44:23;;;;;;;10.00;9.70;;;19.70;99.90;;;;;;5079034;28;20249;-81
2023/09/04 20:46:50;;;;;;;9.85;9.55;;;19.80;99.90;;;;;;5082451;28;20233;-81
2023/09/04 20:49:19;;;;;;;9.88;9.57;;;19.70;99.90;;;;;;5085990;28;20237;-81
2023/09/04 20:51:46;;;;;;;9.60;9.30;;;19.70;99.90;;;;;;5080377;28;20235;-82
2023/09/04 20:54:14;;;;;;;9.70;9.40;;;19.60;99.90;;;;;;5080462;28;20234;-83
2023/09/04 20:56:42;;;;;;;10.10;9.80;;;19.60;99.90;;;;;;5080889;28;20226;-83
2023/09/04 20:59:09;;;;;;;9.73;9.43;;;19.60;99.90;;;;;;5076328;28;20256;-81
2023/09/04 21:01:37;;;;;;;10.20;9.90;;;19.50;99.90;;;;;;5070727;28;20241;-82
2023/09/04 21:04:06;;;;;;;10.18;9.88;;;19.50;99.90;;;;;;5074618;28;20276;-82
2023/09/04 21:06:35;;;;;;;9.95;9.65;;;19.40;99.90;;;;;;5084360;28;20288;-84
2023/09/04 23:23:14;;;;;;;10.50;10.20;;;17.60;99.90;;;;;;5095874;28;20233;-84
2023/09/04 23:25:44;;;;;;;10.38;10.07;;;17.50;99.90;;;;;;5082442;28;20229;-84
2023/09/04 23:28:12;;;;;;;10.43;10.13;;;17.50;99.90;;;;;;5092018;28;20234;-84
2023/09/04 23:30:40;;;;;;;10.77;10.48;;;17.40;99.90;;;;;;5094132;28;20209;-84
2023/09/04 23:36:15;;;;;;;10.85;10.55;;;17.30;99.90;;;;;;5073392;28;20303;-84
2023/09/04 23:47:40;;;;;;;10.90;10.60;;;16.90;99.90;;;;;;5084025;28;20214;-84
2023/09/04 23:50:31;;;;;;;11.05;10.75;;;16.80;99.90;;;;;;5095043;28;20225;-84
2023/09/04 23:53:07;;;;;;;11.20;10.90;;;16.80;99.90;;;;;;5103580;28;20295;-84
2023/09/04 23:55:35;;;;;;;10.95;10.65;;;16.80;99.90;;;;;;5103552;28;20221;-84
